Time;durP1;ratioP1;P1;durP2;ratioP2;P2;SDS_P1;SDS_P2;PMS_P1;PMS_P2;Temp;Humidity;BMP_temperature;BMP_pressure;BME280_temperature;BME280_humidity;BME280_pressure;Samples;Min_cycle;Max_cycle;Signal;HPM_P1;HPM_P2
2022/02/02 00:04:53;;;;;;;8.13;2.75;;;;;;;8.81;100.00;97284.06;4978358;28;20084;-54
2022/02/02 00:09:54;;;;;;;8.18;2.67;;;;;;;7.86;100.00;97283.78;4980596;28;20523;-56
2022/02/02 00:12:36;;;;;;;8.95;2.90;;;;;;;8.44;100.00;97279.66;4979527;28;20108;-55
2022/02/02 00:15:29;;;;;;;8.43;2.85;;;;;;;8.95;100.00;97264.38;4980394;28;20049;-56
2022/02/02 00:17:56;;;;;;;9.82;2.83;;;;;;;9.16;100.00;97267.75;4978972;28;20899;-56
2022/02/02 00:20:30;;;;;;;9.23;3.08;;;;;;;8.86;100.00;97270.84;4979716;28;20704;-56
2022/02/02 00:22:59;;;;;;;7.57;2.88;;;;;;;8.43;100.00;97272.75;4980369;28;20026;-56
2022/02/02 00:25:32;;;;;;;8.23;2.97;;;;;;;9.66;100.00;97290.50;4979255;28;20034;-55
2022/02/02 00:28:00;;;;;;;10.30;3.22;;;;;;;10.16;100.00;97286.31;4980186;28;20031;-55
2022/02/02 00:30:30;;;;;;;8.68;2.90;;;;;;;9.15;100.00;97277.28;4979259;28;20034;-54
2022/02/02 00:35:26;;;;;;;10.48;3.20;;;;;;;10.34;100.00;97263.69;4979426;28;20035;-55
2022/02/02 00:37:52;;;;;;;10.90;3.28;;;;;;;8.36;100.00;97268.72;4980068;28;20105;-57
2022/02/02 00:40:17;;;;;;;8.00;2.53;;;;;;;9.99;100.00;97280.16;4979076;28;20126;-58
2022/02/02 00:42:45;;;;;;;8.35;3.03;;;;;;;10.89;100.00;97255.56;4979790;28;20109;-57
2022/02/02 00:45:10;;;;;;;7.80;2.80;;;;;;;9.35;100.00;97273.75;4979035;28;20037;-54
2022/02/02 00:47:39;;;;;;;9.27;2.78;;;;;;;9.46;100.00;97275.84;4980014;28;20027;-56
2022/02/02 00:50:05;;;;;;;10.20;3.05;;;;;;;11.04;100.00;97261.72;4979645;28;20022;-55
2022/02/02 00:52:30;;;;;;;11.32;3.30;;;;;;;9.35;100.00;97278.94;4978571;28;20038;-56
2022/02/02 00:54:56;;;;;;;10.93;3.15;;;;;;;10.64;100.00;97282.09;4979356;28;20042;-56
2022/02/02 00:57:23;;;;;;;9.23;2.90;;;;;;;11.35;100.00;97263.47;4978642;28;20031;-55
2022/02/02 00:59:49;;;;;;;9.40;2.88;;;;;;;10.51;100.00;97288.91;4979616;28;20121;-55
2022/02/02 01:02:14;;;;;;;9.52;3.00;;;;;;;10.63;100.00;97285.66;4979064;28;20038;-55
2022/02/02 01:04:40;;;;;;;9.90;2.90;;;;;;;11.19;100.00;97289.59;4979244;28;20080;-56
2022/02/02 01:09:37;;;;;;;9.15;2.85;;;;;;;9.50;100.00;97284.34;4979052;28;20085;-55
2022/02/02 01:17:22;;;;;;;8.95;2.95;;;;;;;11.70;100.00;97298.97;4978802;28;20089;-56
2022/02/02 01:28:22;;;;;;;9.13;2.83;;;;;;;11.51;100.00;97299.19;4960702;28;20049;-55
2022/02/02 01:30:48;;;;;;;7.90;2.60;;;;;;;13.09;100.00;97292.47;4978297;28;20038;-56
2022/02/02 01:33:13;;;;;;;8.75;2.63;;;;;;;11.96;100.00;97294.91;4979363;28;20030;-56
2022/02/02 01:35:39;;;;;;;6.40;2.35;;;;;;;12.28;100.00;97289.59;4977505;28;20034;-56
2022/02/02 01:38:05;;;;;;;6.75;2.50;;;;;;;13.36;100.00;97278.63;4978187;28;20026;-55
2022/02/02 01:40:38;;;;;;;7.32;2.42;;;;;;;10.82;100.00;97274.25;4978258;28;20042;-56
2022/02/02 01:43:08;;;;;;;8.05;2.60;;;;;;;10.81;100.00;97276.00;4978286;28;20753;-56
2022/02/02 01:45:39;;;;;;;7.57;2.35;;;;;;;9.79;100.00;97288.13;4978535;28;20088;-54
2022/02/02 01:48:31;;;;;;;6.75;2.40;;;;;;;12.63;100.00;97286.63;4978769;28;20092;-55
2022/02/02 01:55:57;;;;;;;6.28;2.25;;;;;;;12.12;100.00;97295.69;4978011;28;20262;-55
2022/02/02 02:01:08;;;;;;;9.48;2.80;;;;;;;9.50;100.00;97271.34;4977930;28;20108;-57
2022/02/02 02:03:34;;;;;;;9.50;2.60;;;;;;;12.19;100.00;97295.34;4978631;28;20104;-56
2022/02/02 02:06:00;;;;;;;7.65;2.60;;;;;;;11.65;100.00;97291.41;4977559;28;20045;-57
2022/02/02 02:08:26;;;;;;;8.77;2.88;;;;;;;10.58;100.00;97301.53;4978595;28;20030;-56
2022/02/02 02:10:52;;;;;;;7.35;2.63;;;;;;;9.32;100.00;97305.16;4977640;28;20038;-56
2022/02/02 02:13:34;;;;;;;6.65;2.30;;;;;;;11.82;100.00;97307.88;4977673;28;20114;-55
2022/02/02 02:16:00;;;;;;;7.15;2.47;;;;;;;12.39;100.00;97318.53;4965207;28;20038;-55
2022/02/02 02:18:25;;;;;;;8.20;2.45;;;;;;;10.57;100.00;97312.06;4977614;28;20064;-55
2022/02/02 02:20:51;;;;;;;10.23;2.85;;;;;;;10.86;100.00;97323.53;4977271;28;20052;-56
2022/02/02 02:23:18;;;;;;;10.07;2.80;;;;;;;9.64;100.00;97327.03;4978251;28;20042;-56
2022/02/02 02:25:44;;;;;;;7.82;2.58;;;;;;;12.39;100.00;97338.59;4977665;28;20038;-54
2022/02/02 02:28:24;;;;;;;13.75;3.10;;;;;;;9.36;100.00;97334.47;4976359;28;20462;-55
2022/02/02 02:30:54;;;;;;;8.50;2.70;;;;;;;11.20;100.00;97353.06;4975326;28;20050;-57
2022/02/02 02:33:54;;;;;;;8.98;2.97;;;;;;;10.52;100.00;97354.00;4960414;28;20081;-55
2022/02/02 02:58:11;;;;;;;11.57;2.95;;;;;;;10.25;100.00;97342.34;4976670;28;20443;-55
2022/02/02 03:30:14;;;;;;;15.27;3.67;;;;;;;9.99;100.00;97344.47;4976157;28;20519;-57
2022/02/02 03:51:44;;;;;;;13.15;3.00;;;;;;;9.44;100.00;97345.34;4979454;28;20081;-55
2022/02/02 04:00:15;;;;;;;9.85;2.72;;;;;;;11.35;100.00;97352.25;4965410;28;20100;-55
2022/02/02 04:07:46;;;;;;;11.60;2.90;;;;;;;10.32;100.00;97354.19;4979453;28;20823;-55
2022/02/02 04:10:11;;;;;;;13.10;3.13;;;;;;;9.85;100.00;97368.56;4980304;28;20101;-56
2022/02/02 04:18:12;;;;;;;10.38;2.90;;;;;;;8.77;100.00;97376.13;4980095;28;20037;-56
2022/02/02 04:56:12;;;;;;;16.30;3.70;;;;;;;8.56;100.00;97388.28;4979712;28;20681;-55
2022/02/02 05:06:18;;;;;;;14.85;3.78;;;;;;;9.19;100.00;97402.88;4978084;28;20042;-57
2022/02/02 05:09:12;;;;;;;11.55;2.97;;;;;;;11.14;100.00;97421.28;4979558;28;20038;-55
2022/02/02 05:53:41;;;;;;;19.70;4.20;;;;;;;8.91;100.00;97424.91;4978536;28;20125;-55
2022/02/02 05:56:08;;;;;;;23.00;4.22;;;;;;;8.71;100.00;97423.16;4978556;28;20181;-57
2022/02/02 05:58:37;;;;;;;16.25;3.88;;;;;;;9.98;100.00;97418.31;4977937;28;20019;-57
2022/02/02 06:01:05;;;;;;;16.33;4.22;;;;;;;8.50;100.00;97419.72;4977318;28;20038;-56
2022/02/02 06:03:53;;;;;;;17.95;4.00;;;;;;;9.26;100.00;97433.78;4973459;28;20084;-57
2022/02/02 06:06:23;;;;;;;16.55;3.83;;;;;;;8.72;100.00;97424.88;4980755;28;20114;-56
2022/02/02 06:08:50;;;;;;;16.27;3.95;;;;;;;8.45;100.00;97447.66;4981593;28;20018;-57
2022/02/02 06:11:21;;;;;;;20.75;4.57;;;;;;;8.28;100.00;97449.16;4980732;28;20042;-56
2022/02/02 06:13:54;;;;;;;18.15;3.90;;;;;;;8.87;100.00;97459.78;4980880;28;20022;-56
2022/02/02 06:16:21;;;;;;;20.65;3.90;;;;;;;8.33;100.00;97463.75;4980501;28;20043;-56
2022/02/02 06:18:54;;;;;;;11.52;2.55;;;;;;;9.25;100.00;97459.88;4966138;28;20510;-57
2022/02/02 06:21:32;;;;;;;13.27;3.47;;;;;;;9.84;100.00;97464.09;4980826;28;20104;-57
2022/02/02 06:24:11;;;;;;;19.10;4.22;;;;;;;8.52;100.00;97485.50;4980602;28;20030;-57
2022/02/02 06:26:38;;;;;;;13.45;3.30;;;;;;;10.89;100.00;97500.81;4980580;28;20842;-56
2022/02/02 06:29:09;;;;;;;9.75;2.72;;;;;;;11.74;100.00;97493.81;4980811;28;20022;-55
2022/02/02 06:31:36;;;;;;;8.77;2.70;;;;;;;12.76;100.00;97482.97;4980559;28;20240;-58
2022/02/02 06:34:04;;;;;;;12.52;2.88;;;;;;;17.13;100.00;97457.31;4980400;28;20026;-58
2022/02/02 06:36:32;;;;;;;13.15;3.10;;;;;;;15.67;100.00;97467.91;4980208;28;20065;-58
2022/02/02 06:38:58;;;;;;;10.85;3.40;;;;;;;16.94;100.00;97480.72;4980114;28;20038;-56
2022/02/02 06:41:26;;;;;;;13.18;3.90;;;;;;;15.25;100.00;97466.47;4980202;28;20047;-57
2022/02/02 06:43:54;;;;;;;12.40;3.50;;;;;;;17.29;100.00;97442.94;4981144;28;20053;-57
2022/02/02 06:46:21;;;;;;;13.07;3.42;;;;;;;16.89;100.00;97467.91;4980430;28;20049;-58
2022/02/02 06:48:46;;;;;;;11.85;3.20;;;;;;;17.08;100.00;97477.88;4980614;28;20353;-57
2022/02/02 06:51:20;;;;;;;9.70;2.50;;;;;;;14.31;100.00;97477.91;4962285;28;20034;-57
2022/02/02 06:53:59;;;;;;;9.95;2.78;;;;;;;15.76;100.00;97482.22;4980656;28;20134;-56
2022/02/02 07:04:52;;;;;;;12.63;3.38;;;;;;;7.44;100.00;97515.56;4980330;28;20105;-56
2022/02/02 07:18:07;;;;;;;16.65;3.70;;;;;;;7.43;100.00;97526.00;4984290;28;20028;-57
2022/02/02 07:21:06;;;;;;;23.48;4.40;;;;;;;7.25;100.00;97530.09;4983821;28;20048;-55
2022/02/02 07:28:32;;;;;;;21.67;4.20;;;;;;;6.90;100.00;97530.41;4984024;28;20034;-57
2022/02/02 07:31:21;;;;;;;23.48;4.15;;;;;;;6.59;100.00;97527.97;4981932;28;20042;-56
2022/02/02 07:34:20;;;;;;;25.33;4.22;;;;;;;6.70;100.00;97531.06;4983516;28;20534;-57
2022/02/02 07:36:50;;;;;;;18.88;4.38;;;;;;;6.91;100.00;97531.25;4947989;28;20298;-56
2022/02/02 07:39:16;;;;;;;18.40;3.97;;;;;;;6.92;100.00;97532.94;4982756;28;20030;-57
2022/02/02 07:41:48;;;;;;;23.33;4.32;;;;;;;6.71;100.00;97534.53;4980749;28;20601;-57
2022/02/02 07:44:22;;;;;;;23.07;4.57;;;;;;;6.97;100.00;97535.41;4983184;28;20038;-57
2022/02/02 07:46:50;;;;;;;21.90;4.43;;;;;;;6.89;100.00;97543.41;4982248;28;20124;-57
2022/02/02 07:49:20;;;;;;;19.08;4.03;;;;;;;6.98;100.00;97543.09;4983283;28;20089;-55
2022/02/02 07:51:50;;;;;;;18.80;3.88;;;;;;;7.12;100.00;97555.63;4945604;28;20571;-56
2022/02/02 07:54:20;;;;;;;24.13;4.28;;;;;;;7.07;100.00;97549.72;4984263;28;20069;-58
2022/02/02 07:56:47;;;;;;;16.77;3.80;;;;;;;6.85;100.00;97547.84;4983090;28;20046;-56
2022/02/02 07:59:21;;;;;;;20.70;4.88;;;;;;;6.90;100.00;97550.31;4983853;28;20022;-57
2022/02/02 08:01:49;;;;;;;17.05;4.30;;;;;;;7.12;100.00;97561.63;4983026;28;20133;-57
2022/02/02 08:04:17;;;;;;;19.23;4.22;;;;;;;7.34;100.00;97568.69;4984224;28;20030;-56
2022/02/02 08:06:48;;;;;;;17.77;4.00;;;;;;;7.26;100.00;97558.59;4982890;28;20069;-57
2022/02/02 08:09:23;;;;;;;20.27;3.70;;;;;;;7.38;100.00;97567.69;4983626;28;20026;-56
2022/02/02 08:11:51;;;;;;;22.02;4.57;;;;;;;7.32;100.00;97567.91;4967117;28;20276;-57
2022/02/02 08:14:16;;;;;;;15.90;3.65;;;;;;;7.17;100.00;97568.41;4983630;28;20038;-57
2022/02/02 08:16:41;;;;;;;21.35;3.85;;;;;;;7.50;100.00;97572.44;4982966;28;20050;-57
2022/02/02 08:19:07;;;;;;;22.83;4.38;;;;;;;7.48;100.00;97584.63;4983763;28;20045;-57
2022/02/02 08:21:32;;;;;;;19.15;3.90;;;;;;;7.59;100.00;97602.41;4982835;28;20069;-56
2022/02/02 08:23:57;;;;;;;18.90;4.05;;;;;;;7.33;100.00;97604.19;4983393;28;20037;-56
2022/02/02 08:26:23;;;;;;;18.50;4.03;;;;;;;7.40;100.00;97616.94;4982051;28;20046;-56
2022/02/02 08:28:50;;;;;;;19.27;4.10;;;;;;;7.46;100.00;97622.75;4965724;28;20022;-55
2022/02/02 08:31:15;;;;;;;17.85;3.95;;;;;;;7.53;100.00;97613.88;4982333;28;20048;-57
2022/02/02 08:33:45;;;;;;;13.57;3.50;;;;;;;7.59;100.00;97623.19;4983214;28;20026;-55
2022/02/02 08:36:14;;;;;;;23.63;4.50;;;;;;;8.54;100.00;97621.44;4964977;28;20039;-56
2022/02/02 08:44:17;;;;;;;22.98;4.30;;;;;;;7.77;100.00;97608.69;4972163;28;20043;-56
2022/02/02 08:46:51;;;;;;;19.45;4.38;;;;;;;8.04;100.00;97613.78;4982366;28;20416;-55
2022/02/02 08:49:17;;;;;;;23.35;4.55;;;;;;;7.93;100.00;97611.59;4982501;28;20037;-57
2022/02/02 08:51:45;;;;;;;19.00;3.90;;;;;;;7.70;100.00;97620.19;4981955;28;20034;-55
2022/02/02 08:59:27;;;;;;;19.20;3.78;;;;;;;7.56;100.00;97640.63;4982355;28;20089;-55
2022/02/02 09:01:54;;;;;;;25.15;4.43;;;;;;;7.83;100.00;97644.84;4981244;28;20076;-56
2022/02/02 09:07:04;;;;;;;21.23;3.63;;;;;;;7.94;100.00;97649.66;4981744;28;20088;-55
2022/02/02 09:23:44;;;;;;;23.10;4.60;;;;;;;8.09;100.00;97651.69;4973957;28;20413;-56
2022/02/02 09:34:05;;;;;;;18.38;3.85;;;;;;;8.84;100.00;97662.75;4981453;28;20579;-57
2022/02/02 09:36:32;;;;;;;16.85;3.60;;;;;;;8.48;100.00;97660.69;4981441;28;20058;-57
2022/02/02 09:39:03;;;;;;;21.10;4.35;;;;;;;8.28;100.00;97670.03;4981390;28;20041;-57
2022/02/02 09:44:26;;;;;;;18.95;3.70;;;;;;;8.87;100.00;97686.03;4976267;28;20467;-56
2022/02/02 09:46:58;;;;;;;18.27;3.80;;;;;;;8.30;100.00;97699.41;4981139;28;20077;-57
2022/02/02 09:51:58;;;;;;;13.60;3.40;;;;;;;8.36;100.00;97700.06;4981281;28;20610;-58
2022/02/02 09:54:35;;;;;;;12.27;3.25;;;;;;;9.12;100.00;97711.09;4981450;28;20026;-55
2022/02/02 10:04:43;;;;;;;15.25;3.33;;;;;;;8.27;100.00;97729.84;4981682;28;20125;-57
2022/02/02 10:10:14;;;;;;;13.30;3.00;;;;;;;8.68;100.00;97733.56;4981774;28;20788;-57
2022/02/02 10:15:19;;;;;;;16.92;3.22;;;;;;;8.82;100.00;97752.97;4980437;28;20030;-58
2022/02/02 10:17:45;;;;;;;14.60;3.15;;;;;;;8.49;100.00;97748.13;4981856;28;20033;-56
2022/02/02 10:20:22;;;;;;;17.08;3.50;;;;;;;9.15;100.00;97743.03;4981568;28;20022;-58
2022/02/02 10:22:51;;;;;;;12.63;3.13;;;;;;;8.79;100.00;97753.13;4981017;28;20312;-57
2022/02/02 10:25:31;;;;;;;15.77;3.83;;;;;;;8.53;100.00;97743.66;4980827;28;20109;-57
2022/02/02 10:28:20;;;;;;;17.42;3.28;;;;;;;9.57;100.00;97736.16;4981232;28;20030;-57
2022/02/02 10:30:52;;;;;;;12.05;2.83;;;;;;;8.48;100.00;97749.06;4979668;28;20580;-57
2022/02/02 10:33:18;;;;;;;11.88;2.95;;;;;;;9.23;100.00;97753.16;4963313;28;20578;-57
2022/02/02 10:35:50;;;;;;;13.45;2.85;;;;;;;9.07;100.00;97745.94;4980462;28;20739;-56
2022/02/02 10:38:20;;;;;;;12.63;3.00;;;;;;;9.47;100.00;97753.09;4980691;28;20559;-58
2022/02/02 10:43:45;;;;;;;9.90;2.42;;;;;;;8.38;100.00;97750.25;4981029;28;20029;-57
2022/02/02 10:46:16;;;;;;;12.77;2.83;;;;;;;8.82;100.00;97752.97;4980548;28;20635;-57
2022/02/02 10:48:50;;;;;;;11.10;2.63;;;;;;;8.74;100.00;97765.44;4980244;28;20088;-57
2022/02/02 10:51:22;;;;;;;10.48;2.35;;;;;;;9.32;100.00;97765.81;4980354;28;20381;-55
2022/02/02 10:59:15;;;;;;;11.07;2.80;;;;;;;9.50;100.00;97772.00;4980237;28;20548;-57
2022/02/02 11:07:09;;;;;;;15.75;3.28;;;;;;;9.58;100.00;97769.13;4979431;28;20053;-57
2022/02/02 11:09:35;;;;;;;10.35;2.72;;;;;;;9.83;100.00;97775.00;4962562;28;20403;-56
2022/02/02 11:12:02;;;;;;;11.05;2.70;;;;;;;9.62;100.00;97770.69;4979187;28;20056;-57
2022/02/02 11:14:48;;;;;;;11.55;2.63;;;;;;;9.43;100.00;97770.59;4980169;28;20113;-57
2022/02/02 11:17:32;;;;;;;16.67;2.83;;;;;;;10.06;100.00;97757.56;4979249;28;20423;-57
2022/02/02 11:20:01;;;;;;;11.27;2.70;;;;;;;10.08;100.00;97773.97;4962145;28;20077;-57
2022/02/02 11:22:33;;;;;;;11.15;2.75;;;;;;;9.85;100.00;97787.94;4979297;28;20042;-57
2022/02/02 11:25:04;;;;;;;8.60;2.33;;;;;;;9.20;100.00;97781.88;4980206;28;20093;-56
2022/02/02 11:27:58;;;;;;;13.35;2.78;;;;;;;9.65;100.00;97796.59;4979368;28;20590;-57
2022/02/02 11:30:23;;;;;;;11.93;2.40;;;;;;;8.86;100.00;97793.59;4975254;28;20038;-56
2022/02/02 11:32:53;;;;;;;12.77;2.75;;;;;;;9.72;100.00;97798.03;4980206;28;20081;-57
2022/02/02 11:35:46;;;;;;;;;;;;;;;;;;;;;
2022/02/02 11:38:23;;;;;;;15.07;3.15;;;;;;;9.22;100.00;97798.28;4980083;28;20078;-58
2022/02/02 11:41:22;;;;;;;;;;;;;;;9.48;100.00;97781.63;4979646;28;20081;-58
2022/02/02 11:43:54;;;;;;;11.43;2.53;;;;;;;9.62;100.00;97784.53;4980778;28;19953;-57
2022/02/02 11:46:39;;;;;;;11.95;2.80;;;;;;;9.61;100.00;97790.69;4979919;28;20125;-56
2022/02/02 11:49:15;;;;;;;12.98;3.03;;;;;;;9.39;100.00;97787.22;4979923;28;20114;-56
2022/02/02 11:51:48;;;;;;;9.75;2.30;;;;;;;9.03;100.00;97787.75;4979097;28;20109;-56
2022/02/02 11:54:42;;;;;;;10.15;2.28;;;;;;;9.19;100.00;97788.00;4979817;28;20033;-55
2022/02/02 12:00:17;;;;;;;12.27;2.72;;;;;;;9.59;100.00;97804.66;4972270;28;20439;-57
2022/02/02 12:53:32;;;;;;;13.07;2.42;;;;;;;9.61;100.00;97889.63;4944417;28;20042;-58
2022/02/02 12:56:26;;;;;;;12.40;3.05;;;;;;;9.42;100.00;97884.25;4982345;28;20448;-58
2022/02/02 12:59:22;;;;;;;10.40;2.47;;;;;;;9.83;100.00;97889.63;4982686;28;20030;-58
2022/02/02 13:02:08;;;;;;;11.75;2.58;;;;;;;9.90;100.00;97890.22;4981912;28;20114;-60
2022/02/02 13:04:41;;;;;;;9.63;2.55;;;;;;;9.72;100.00;97891.78;4982401;28;20035;-56
2022/02/02 13:07:17;;;;;;;11.38;2.50;;;;;;;9.26;100.00;97888.34;4962795;28;20102;-55
2022/02/02 13:09:53;;;;;;;10.70;2.30;;;;;;;9.71;100.00;97884.06;4982190;28;20092;-57
2022/02/02 13:12:36;;;;;;;11.35;2.70;;;;;;;9.43;100.00;97892.94;4981421;28;20161;-56
2022/02/02 13:18:29;;;;;;;8.65;2.35;;;;;;;9.51;100.00;97911.72;4982010;28;20512;-54
2022/02/02 13:24:02;;;;;;;10.65;2.40;;;;;;;9.57;100.00;97910.63;4982030;28;20030;-58
2022/02/02 13:26:37;;;;;;;8.77;2.30;;;;;;;9.60;100.00;97913.13;4980972;28;20038;-58
2022/02/02 13:29:28;;;;;;;13.38;2.72;;;;;;;9.53;100.00;97906.44;4982223;28;20085;-59
2022/02/02 13:32:29;;;;;;;10.23;2.30;;;;;;;9.60;100.00;97923.53;4980096;28;20072;-58
2022/02/02 13:35:19;;;;;;;10.23;2.17;;;;;;;9.21;100.00;97937.97;4982224;28;20057;-61
2022/02/02 13:38:19;;;;;;;8.75;2.45;;;;;;;8.83;100.00;97931.53;4981391;28;20511;-57
2022/02/02 13:46:37;;;;;;;;;;;;;;;;;;;;;
2022/02/02 13:49:14;;;;;;;10.27;2.20;;;;;;;9.53;100.00;97943.75;4981989;28;20491;-59
2022/02/02 13:57:05;;;;;;;12.90;2.60;;;;;;;8.85;100.00;97950.53;4981178;28;20116;-59
2022/02/02 14:05:04;;;;;;;9.30;2.40;;;;;;;8.93;100.00;97958.91;4981149;28;20247;-57
2022/02/02 14:07:47;;;;;;;12.45;2.65;;;;;;;8.81;100.00;97946.34;4980366;28;20046;-57
2022/02/02 14:10:40;;;;;;;10.48;2.45;;;;;;;9.10;100.00;97965.28;4966397;28;20029;-60
2022/02/02 14:32:30;;;;;;;11.38;2.67;;;;;;;9.13;100.00;97997.25;4978611;28;20073;-57
2022/02/02 14:34:56;;;;;;;10.20;2.42;;;;;;;8.74;100.00;97999.47;4980448;28;20018;-56
2022/02/02 14:37:27;;;;;;;13.50;2.85;;;;;;;8.54;100.00;97987.97;4980094;28;20133;-57
2022/02/02 14:40:09;;;;;;;15.45;2.33;;;;;;;8.44;100.00;98007.41;4980811;28;20084;-56
2022/02/02 14:42:37;;;;;;;13.82;2.90;;;;;;;8.60;100.00;98007.72;4980267;28;20038;-57
2022/02/02 14:45:13;;;;;;;11.90;2.72;;;;;;;9.14;100.00;98014.56;4980078;28;20026;-55
2022/02/02 14:47:43;;;;;;;10.00;2.78;;;;;;;8.57;100.00;98019.09;4980405;28;20057;-57
2022/02/02 14:50:18;;;;;;;14.25;2.60;;;;;;;8.55;100.00;98007.88;4980223;28;20030;-57
2022/02/02 15:09:53;;;;;;;10.38;2.67;;;;;;;8.84;100.00;98042.47;4979764;28;20114;-58
2022/02/02 15:30:45;;;;;;;11.10;2.90;;;;;;;9.17;100.00;98082.13;4979642;28;20030;-58
2022/02/02 15:33:17;;;;;;;10.32;2.90;;;;;;;9.10;100.00;98090.16;4979937;28;20023;-57
2022/02/02 15:35:44;;;;;;;9.15;2.20;;;;;;;8.34;100.00;98095.16;4983631;28;20038;-58
2022/02/02 15:38:19;;;;;;;10.10;2.20;;;;;;;8.20;100.00;98092.13;4983816;28;20045;-58
2022/02/02 15:40:57;;;;;;;12.05;2.47;;;;;;;8.52;100.00;98101.56;4983323;28;20212;-58
2022/02/02 16:02:19;;;;;;;10.73;2.80;;;;;;;8.55;100.00;98101.47;4982719;28;20042;-56
2022/02/02 16:04:45;;;;;;;11.98;2.60;;;;;;;8.74;100.00;98108.69;4983780;28;20104;-57
2022/02/02 16:07:20;;;;;;;11.63;2.78;;;;;;;8.45;100.00;98107.84;4982766;28;20465;-56
2022/02/02 16:09:57;;;;;;;12.27;2.53;;;;;;;8.05;100.00;98111.59;4982831;28;20037;-56
2022/02/02 16:12:37;;;;;;;10.13;2.50;;;;;;;7.99;100.00;98119.59;4982486;28;20054;-56
2022/02/02 16:31:48;;;;;;;8.80;2.25;;;;;;;8.08;100.00;98145.28;4982339;28;20499;-57
2022/02/02 16:34:54;;;;;;;12.05;2.70;;;;;;;7.91;100.00;98164.81;4982769;28;20027;-55
2022/02/02 16:37:09;;;;;;;9.25;2.45;;;;;;;7.56;100.00;98168.34;4981974;28;20436;-57
2022/02/02 16:39:50;;;;;;;10.85;2.72;;;;;;;7.83;100.00;98177.16;4983222;28;20022;-56
2022/02/02 16:45:04;;;;;;;9.98;2.58;;;;;;;7.23;100.00;98185.63;4982294;28;20481;-56
2022/02/02 16:47:30;;;;;;;11.75;2.40;;;;;;;7.63;100.00;98201.06;4981997;28;20416;-56
2022/02/02 16:50:02;;;;;;;11.15;2.63;;;;;;;7.27;100.00;98193.28;4964131;28;20520;-56
2022/02/02 16:52:33;;;;;;;14.50;3.17;;;;;;;8.58;100.00;98197.56;4979902;28;20062;-54
2022/02/02 16:55:05;;;;;;;13.13;2.70;;;;;;;8.63;100.00;98211.28;4980521;28;20544;-57
2022/02/02 16:57:48;;;;;;;;;;;;;;;;;;;;;
2022/02/02 17:30:22;;;;;;;8.43;2.60;;;;;;;8.29;100.00;98217.44;4981243;28;20085;-56
2022/02/02 17:33:12;;;;;;;16.83;2.97;;;;;;;8.52;100.00;98228.97;4981726;28;20100;-57
2022/02/02 17:36:02;;;;;;;11.98;3.13;;;;;;;8.63;100.00;98231.25;4981163;28;20129;-57
2022/02/02 18:03:08;;;;;;;17.40;4.65;;;;;;;7.59;100.00;98284.22;4980492;28;20084;-57
2022/02/02 18:21:05;;;;;;;13.07;3.28;;;;;;;8.59;100.00;98305.88;4980313;28;20108;-57
2022/02/02 18:23:43;;;;;;;12.35;3.08;;;;;;;8.78;100.00;98315.75;4980807;28;20030;-55
2022/02/02 18:36:56;;;;;;;12.23;4.10;;;;;;;7.73;100.00;98321.09;4967003;28;20042;-56
2022/02/02 18:55:45;;;;;;;13.77;2.97;;;;;;;7.88;100.00;98354.50;4980248;28;20060;-58
2022/02/02 19:55:47;;;;;;;14.00;3.45;;;;;;;8.52;100.00;98421.34;4979582;28;20113;-58
2022/02/02 20:11:38;;;;;;;17.10;4.78;;;;;;;7.11;100.00;98436.66;4979008;28;20046;-57
2022/02/02 20:14:06;;;;;;;20.13;5.47;;;;;;;6.95;100.00;98440.44;4979722;28;20045;-56
2022/02/02 20:16:32;;;;;;;17.10;4.47;;;;;;;7.42;100.00;98451.59;4979411;28;20050;-58
2022/02/02 20:19:05;;;;;;;10.45;3.03;;;;;;;7.21;100.00;98444.25;4979856;28;20060;-55
2022/02/02 20:21:43;;;;;;;16.92;5.25;;;;;;;7.17;100.00;98445.19;4979978;28;20042;-55
2022/02/02 20:24:13;;;;;;;23.02;5.35;;;;;;;6.65;100.00;98452.22;4982900;28;20037;-56
2022/02/02 20:26:48;;;;;;;23.20;5.72;;;;;;;6.37;100.00;98455.31;4982065;28;20042;-55
2022/02/02 20:29:14;;;;;;;20.58;6.18;;;;;;;5.79;100.00;98464.81;4982222;28;20023;-57
2022/02/02 20:31:46;;;;;;;21.25;6.13;;;;;;;6.10;100.00;98460.06;4981853;28;20034;-56
2022/02/02 20:34:15;;;;;;;25.98;6.80;;;;;;;6.21;100.00;98467.63;4981390;28;20724;-56
2022/02/02 20:36:42;;;;;;;29.60;7.00;;;;;;;6.40;100.00;98472.56;4980061;28;20729;-56
2022/02/02 20:39:33;;;;;;;21.60;6.50;;;;;;;6.44;100.00;98474.19;4982130;28;20869;-57
2022/02/02 20:42:02;;;;;;;20.90;6.05;;;;;;;6.39;100.00;98465.66;4981862;28;20049;-56
2022/02/02 20:44:46;;;;;;;21.77;6.85;;;;;;;5.95;100.00;98471.47;4982264;28;20041;-55
2022/02/02 21:06:41;;;;;;;21.42;5.97;;;;;;;6.07;100.00;98479.97;4981917;28;20041;-57
2022/02/02 21:09:27;;;;;;;17.65;5.10;;;;;;;6.34;100.00;98489.91;4982245;28;20113;-54
2022/02/02 21:14:41;;;;;;;12.60;3.47;;;;;;;6.37;100.00;98489.81;4982043;28;20895;-56
2022/02/02 21:17:22;;;;;;;12.65;4.00;;;;;;;6.49;100.00;98496.56;4981028;28;20150;-55
2022/02/02 21:20:02;;;;;;;20.20;4.83;;;;;;;6.27;100.00;98497.81;4981935;28;20836;-57
2022/02/02 21:22:31;;;;;;;17.27;4.03;;;;;;;6.38;100.00;98490.72;4981048;28;20042;-55
2022/02/02 21:25:19;;;;;;;21.45;6.75;;;;;;;6.20;100.00;98491.84;4980739;28;20068;-54
2022/02/02 21:27:52;;;;;;;19.20;5.78;;;;;;;6.08;100.00;98494.63;4981858;28;20052;-57
2022/02/02 21:30:24;;;;;;;10.93;2.70;;;;;;;7.17;100.00;98494.47;4981124;28;20022;-57
2022/02/02 21:32:51;;;;;;;16.47;4.43;;;;;;;9.07;100.00;98503.13;4978820;28;20077;-57
2022/02/02 21:35:20;;;;;;;18.70;5.90;;;;;;;8.56;100.00;98487.97;4972720;28;20035;-57
2022/02/02 21:37:49;;;;;;;17.92;5.45;;;;;;;8.09;100.00;98489.97;4981146;28;20021;-56
2022/02/02 21:40:24;;;;;;;16.67;6.30;;;;;;;6.54;100.00;98489.56;4980101;28;20057;-59
2022/02/02 21:42:55;;;;;;;18.52;5.75;;;;;;;8.10;100.00;98507.25;4981163;28;20041;-57
2022/02/02 21:45:31;;;;;;;16.65;5.97;;;;;;;8.74;100.00;98497.06;4980173;28;20034;-59
2022/02/02 21:48:03;;;;;;;20.15;6.63;;;;;;;10.00;100.00;98485.72;4962595;28;20815;-58
2022/02/02 21:50:42;;;;;;;20.95;6.55;;;;;;;10.31;100.00;98494.34;4977761;28;20038;-58
2022/02/02 21:53:09;;;;;;;21.60;6.53;;;;;;;9.65;100.00;98494.59;4979508;28;20037;-58
2022/02/02 21:55:36;;;;;;;18.02;6.50;;;;;;;9.96;100.00;98507.56;4978229;28;20507;-58
2022/02/02 21:58:05;;;;;;;18.05;6.75;;;;;;;10.48;100.00;98501.63;4980937;28;20734;-56
2022/02/02 22:00:31;;;;;;;22.48;6.70;;;;;;;9.91;100.00;98506.84;4980300;28;20031;-56
2022/02/02 22:02:57;;;;;;;17.42;6.70;;;;;;;8.49;100.00;98504.63;4981166;28;20141;-56
2022/02/02 22:05:27;;;;;;;27.02;8.60;;;;;;;6.84;100.00;98509.81;4980432;28;20117;-56
2022/02/02 22:07:53;;;;;;;27.02;10.00;;;;;;;6.33;100.00;98508.91;4981698;28;20030;-56
2022/02/02 22:10:24;;;;;;;29.33;9.13;;;;;;;5.94;100.00;98515.53;4980032;28;20030;-55
2022/02/02 22:12:50;;;;;;;29.38;8.50;;;;;;;5.71;100.00;98518.41;4981541;28;20081;-55
2022/02/02 22:15:29;;;;;;;25.33;8.70;;;;;;;5.34;100.00;98519.72;4980711;28;20062;-56
2022/02/02 22:17:55;;;;;;;30.90;8.90;;;;;;;4.83;100.00;98527.13;4981187;28;20018;-56
2022/02/02 22:20:21;;;;;;;36.88;11.13;;;;;;;4.89;100.00;98534.84;4980542;28;20057;-56
2022/02/02 22:22:47;;;;;;;39.42;10.10;;;;;;;4.85;100.00;98540.91;4981125;28;20026;-56
2022/02/02 22:25:20;;;;;;;38.88;9.63;;;;;;;4.69;100.00;98534.16;4980567;28;20526;-57
2022/02/02 22:27:46;;;;;;;34.88;9.93;;;;;;;4.32;100.00;98543.09;4980582;28;20658;-56
2022/02/02 22:30:14;;;;;;;31.20;9.80;;;;;;;4.27;100.00;98552.59;4980504;28;20711;-56
2022/02/02 22:32:40;;;;;;;25.45;8.63;;;;;;;4.39;100.00;98547.34;4980409;28;20018;-56
2022/02/02 22:35:07;;;;;;;31.52;9.18;;;;;;;4.27;100.00;98550.00;4980384;28;20056;-57
2022/02/02 22:37:33;;;;;;;28.90;7.97;;;;;;;4.02;100.00;98552.72;4980758;28;20117;-57
2022/02/02 22:40:04;;;;;;;29.00;8.80;;;;;;;3.83;100.00;98548.53;4980005;28;20121;-55
2022/02/02 22:42:34;;;;;;;20.65;6.50;;;;;;;4.09;100.00;98552.69;4978061;28;20034;-57
2022/02/02 22:45:03;;;;;;;30.45;8.90;;;;;;;4.10;100.00;98554.41;4979801;28;20030;-56
2022/02/02 22:47:29;;;;;;;25.05;7.47;;;;;;;3.97;100.00;98553.63;4980342;28;20692;-58
2022/02/02 22:49:57;;;;;;;22.48;7.25;;;;;;;3.98;100.00;98551.03;4980576;28;20042;-58